createdAt,value
2022-12-29T00:01:49.599Z,11.10
2022-12-29T00:04:53.340Z,11.10
2022-12-29T00:07:57.027Z,11.10
2022-12-29T00:11:02.639Z,11.20
2022-12-29T00:14:25.646Z,11.20
2022-12-29T00:17:29.833Z,11.20
2022-12-29T00:20:50.344Z,11.20
2022-12-29T00:24:07.226Z,11.20
2022-12-29T00:27:28.147Z,11.30
2022-12-29T00:30:45.048Z,11.30
2022-12-29T00:34:02.443Z,11.30
2022-12-29T00:37:06.235Z,11.30
2022-12-29T00:40:25.065Z,11.40
2022-12-29T00:43:43.874Z,11.40
2022-12-29T00:46:47.955Z,11.40
2022-12-29T00:49:51.744Z,11.40
2022-12-29T00:52:55.512Z,11.40
2022-12-29T00:55:59.247Z,11.50
2022-12-29T00:59:06.635Z,11.50
2022-12-29T01:02:12.237Z,11.50
2022-12-29T01:05:16.240Z,11.50
2022-12-29T01:08:22.123Z,11.50
2022-12-29T01:11:23.944Z,11.50
2022-12-29T01:14:30.305Z,11.60
2022-12-29T01:17:34.652Z,11.50
2022-12-29T01:20:38.357Z,11.60
2022-12-29T01:23:42.480Z,11.60
2022-12-29T01:26:46.691Z,11.60
2022-12-29T01:29:52.441Z,11.60
2022-12-29T01:32:56.227Z,11.60
2022-12-29T01:36:03.235Z,11.60
2022-12-29T01:39:07.005Z,11.60
2022-12-29T01:42:17.126Z,11.60
2022-12-29T01:45:24.079Z,11.60
2022-12-29T01:48:27.856Z,11.60
2022-12-29T01:51:35.261Z,11.60
2022-12-29T01:54:42.712Z,11.60
2022-12-29T01:57:51.133Z,11.60
2022-12-29T02:00:57.204Z,11.60
2022-12-29T02:04:01.601Z,11.60
2022-12-29T02:07:09.936Z,11.50
2022-12-29T02:10:13.735Z,11.60
2022-12-29T02:13:19.684Z,11.60
2022-12-29T02:16:47.534Z,11.50
2022-12-29T02:20:24.245Z,11.60
2022-12-29T02:23:55.117Z,11.50
2022-12-29T02:27:16.732Z,11.50
2022-12-29T02:31:02.595Z,11.50
2022-12-29T02:34:19.824Z,11.50
2022-12-29T02:37:28.367Z,11.50
2022-12-29T02:40:39.656Z,11.40
2022-12-29T02:43:58.592Z,11.40
2022-12-29T02:47:08.775Z,11.40
2022-12-29T02:50:20.077Z,11.40
2022-12-29T02:53:38.942Z,11.50
2022-12-29T02:56:42.869Z,11.50
2022-12-29T02:59:46.615Z,11.50
2022-12-29T03:03:18.864Z,11.50
2022-12-29T03:06:35.616Z,11.50
2022-12-29T03:09:45.872Z,11.50
2022-12-29T03:13:10.082Z,11.50
2022-12-29T03:16:21.268Z,11.50
2022-12-29T03:19:30.865Z,11.50
2022-12-29T03:22:42.008Z,11.50
2022-12-29T03:25:53.366Z,11.50
2022-12-29T03:28:59.013Z,11.50
2022-12-29T03:32:08.302Z,11.50
2022-12-29T03:35:14.913Z,11.50
2022-12-29T03:38:25.719Z,11.60
2022-12-29T03:41:35.965Z,11.50
2022-12-29T03:44:43.313Z,11.50
2022-12-29T03:47:48.557Z,11.50
2022-12-29T03:50:54.022Z,11.50
2022-12-29T03:53:59.718Z,11.50
2022-12-29T03:57:03.518Z,11.40
2022-12-29T04:00:19.829Z,11.40
2022-12-29T04:03:26.665Z,11.40
2022-12-29T04:06:30.259Z,11.40
2022-12-29T04:09:42.874Z,11.40
2022-12-29T04:12:50.820Z,11.40
2022-12-29T04:15:54.583Z,11.30
2022-12-29T04:18:58.475Z,11.40
2022-12-29T04:22:02.852Z,11.40
2022-12-29T04:25:10.315Z,11.30
2022-12-29T04:28:14.668Z,11.30
2022-12-29T04:31:32.389Z,11.40
2022-12-29T04:34:36.536Z,11.30
2022-12-29T04:37:40.277Z,11.30
2022-12-29T04:40:46.845Z,11.30
2022-12-29T04:43:51.038Z,11.30
2022-12-29T04:47:16.020Z,11.30
2022-12-29T04:50:45.009Z,11.30
2022-12-29T04:53:54.030Z,11.40
2022-12-29T04:56:59.723Z,11.30
2022-12-29T05:00:03.547Z,11.30
2022-12-29T05:03:07.483Z,11.30
2022-12-29T05:06:13.482Z,11.30
2022-12-29T05:09:17.253Z,11.30
2022-12-29T05:12:24.429Z,11.30
2022-12-29T05:15:35.755Z,11.40
2022-12-29T05:18:39.544Z,11.30
2022-12-29T05:21:44.921Z,11.40
2022-12-29T05:24:49.392Z,11.40
2022-12-29T05:27:55.639Z,11.40
2022-12-29T05:31:16.256Z,11.40
2022-12-29T05:34:21.128Z,11.40
2022-12-29T05:37:24.788Z,11.40
2022-12-29T05:40:28.467Z,11.40
2022-12-29T05:43:38.109Z,11.40
2022-12-29T05:46:51.402Z,11.40
2022-12-29T05:50:18.751Z,11.40
2022-12-29T05:53:45.540Z,11.40
2022-12-29T05:56:49.331Z,11.40
2022-12-29T05:59:54.830Z,11.40
2022-12-29T06:02:58.686Z,11.40
2022-12-29T06:06:03.571Z,11.40
2022-12-29T06:09:07.254Z,11.30
2022-12-29T06:12:11.082Z,11.30
2022-12-29T06:15:18.965Z,11.30
2022-12-29T06:18:25.262Z,11.30
2022-12-29T06:21:29.036Z,11.30
2022-12-29T06:24:32.766Z,11.20
2022-12-29T06:27:36.637Z,11.20
2022-12-29T06:30:42.377Z,11.20
2022-12-29T06:33:49.667Z,11.20
2022-12-29T06:36:54.069Z,11.20
2022-12-29T06:39:57.828Z,11.20
2022-12-29T06:43:06.270Z,11.10
2022-12-29T06:46:31.142Z,11.10
2022-12-29T06:49:34.873Z,11.10
2022-12-29T06:52:38.584Z,11.10
2022-12-29T06:55:43.569Z,11.00
2022-12-29T06:58:47.329Z,11.00
2022-12-29T07:01:53.393Z,11.00
2022-12-29T07:04:57.266Z,11.00
2022-12-29T07:08:01.409Z,10.90
2022-12-29T07:11:05.314Z,10.90
2022-12-29T07:14:08.785Z,10.90
2022-12-29T07:17:14.416Z,10.90
2022-12-29T07:20:23.198Z,10.90
2022-12-29T07:23:30.569Z,10.90
2022-12-29T07:26:36.480Z,10.80
2022-12-29T07:29:40.616Z,10.80
2022-12-29T07:32:46.029Z,10.80
2022-12-29T07:35:49.839Z,10.80
2022-12-29T07:38:53.620Z,10.80
2022-12-29T07:42:04.342Z,10.80
2022-12-29T07:45:15.239Z,10.70
2022-12-29T07:48:46.787Z,10.70
2022-12-29T07:51:50.613Z,10.80
2022-12-29T07:54:54.403Z,10.70
2022-12-29T07:57:58.590Z,10.70
2022-12-29T08:01:02.395Z,10.70
2022-12-29T08:04:08.295Z,10.60
2022-12-29T08:07:12.121Z,10.60
2022-12-29T08:10:17.307Z,10.60
2022-12-29T08:13:21.093Z,10.60
2022-12-29T08:16:24.961Z,10.60
2022-12-29T08:19:30.449Z,10.60
2022-12-29T08:22:34.224Z,10.50
2022-12-29T08:25:37.991Z,10.50
2022-12-29T08:28:41.822Z,10.50
2022-12-29T08:31:46.713Z,10.50
2022-12-29T08:34:52.391Z,10.50
2022-12-29T08:37:56.127Z,10.40
2022-12-29T08:41:01.448Z,10.40
2022-12-29T08:44:05.263Z,10.40
2022-12-29T08:47:09.097Z,10.30
2022-12-29T08:50:14.808Z,10.30
2022-12-29T08:53:18.990Z,10.30
2022-12-29T08:56:24.094Z,10.30
2022-12-29T08:59:31.138Z,10.20
2022-12-29T09:02:35.252Z,10.20
2022-12-29T09:05:40.978Z,10.20
2022-12-29T09:08:44.732Z,10.20
2022-12-29T09:11:48.647Z,10.20
2022-12-29T09:14:52.225Z,10.20
2022-12-29T09:17:55.972Z,10.20
2022-12-29T09:21:03.903Z,10.20
2022-12-29T09:24:08.040Z,10.20
2022-12-29T09:27:12.097Z,10.20
2022-12-29T09:30:17.937Z,10.20
2022-12-29T09:33:21.739Z,10.20
2022-12-29T09:36:27.412Z,10.20
2022-12-29T09:39:31.164Z,10.20
2022-12-29T09:42:41.103Z,10.30
2022-12-29T09:45:47.839Z,10.30
2022-12-29T09:48:58.410Z,10.30
2022-12-29T09:52:08.851Z,10.40
2022-12-29T09:55:17.600Z,10.40
2022-12-29T09:58:29.608Z,10.40
2022-12-29T10:01:39.117Z,10.40
2022-12-29T10:04:44.369Z,10.40
2022-12-29T10:07:56.710Z,10.50
2022-12-29T10:11:10.064Z,10.50
2022-12-29T10:14:31.139Z,10.50
2022-12-29T10:17:44.597Z,10.50
2022-12-29T10:20:55.505Z,10.50
2022-12-29T10:24:04.423Z,10.60
2022-12-29T10:27:12.231Z,10.60
2022-12-29T10:30:17.462Z,10.60
2022-12-29T10:33:26.908Z,10.60
2022-12-29T10:36:37.043Z,10.60
2022-12-29T10:39:47.916Z,10.70
2022-12-29T10:42:56.036Z,10.70
2022-12-29T10:46:04.109Z,10.70
2022-12-29T10:49:21.528Z,10.80
2022-12-29T10:52:27.556Z,10.80
2022-12-29T10:55:37.623Z,10.90
2022-12-29T10:58:48.042Z,10.90
2022-12-29T11:02:00.963Z,10.90
2022-12-29T11:05:09.804Z,10.90
2022-12-29T11:08:16.963Z,10.90
2022-12-29T11:11:28.702Z,10.90
2022-12-29T11:14:35.265Z,10.90
2022-12-29T11:17:46.665Z,10.90
2022-12-29T11:20:51.683Z,10.90
2022-12-29T11:23:59.737Z,10.90
2022-12-29T11:27:18.152Z,10.90
2022-12-29T11:30:26.782Z,10.90
2022-12-29T11:33:30.918Z,10.90
2022-12-29T11:36:36.235Z,10.90
2022-12-29T11:39:43.401Z,10.90
2022-12-29T11:42:54.771Z,10.90
2022-12-29T11:45:58.988Z,10.90
2022-12-29T11:49:04.605Z,10.90
2022-12-29T11:52:09.769Z,10.90
2022-12-29T11:55:22.414Z,10.80
2022-12-29T11:58:35.108Z,10.80
2022-12-29T12:01:41.417Z,10.80
2022-12-29T12:04:45.193Z,10.80
2022-12-29T12:07:52.563Z,10.80
2022-12-29T12:11:01.480Z,10.80
2022-12-29T12:14:12.396Z,10.80
2022-12-29T12:17:42.907Z,10.80
2022-12-29T12:20:50.884Z,10.80
2022-12-29T12:24:18.681Z,10.80
2022-12-29T12:27:27.135Z,10.80
2022-12-29T12:30:39.866Z,10.80
2022-12-29T12:33:48.461Z,10.80
2022-12-29T12:37:23.773Z,10.80
2022-12-29T12:48:31.740Z,10.80
2022-12-29T12:51:48.343Z,10.80
2022-12-29T12:55:16.545Z,10.80
2022-12-29T12:58:29.765Z,10.80
2022-12-29T13:01:45.087Z,10.80
2022-12-29T13:05:02.496Z,10.80
2022-12-29T13:08:30.736Z,10.70
2022-12-29T13:11:47.836Z,10.70
2022-12-29T13:15:03.831Z,10.70
2022-12-29T13:18:15.585Z,10.70
2022-12-29T13:21:36.976Z,10.70
2022-12-29T13:24:52.997Z,10.70
2022-12-29T13:28:03.118Z,10.70
2022-12-29T13:31:18.028Z,10.70
2022-12-29T13:34:34.732Z,10.60
2022-12-29T13:37:49.798Z,10.60
2022-12-29T13:40:57.396Z,10.60
2022-12-29T13:44:03.157Z,10.60
2022-12-29T13:47:17.171Z,10.60
2022-12-29T13:50:23.127Z,10.60
2022-12-29T13:53:37.289Z,10.60
2022-12-29T13:56:44.786Z,10.60
2022-12-29T13:59:57.209Z,10.60
2022-12-29T14:03:23.748Z,10.60
2022-12-29T14:06:32.434Z,10.60
2022-12-29T14:09:56.779Z,10.60
2022-12-29T14:13:06.949Z,10.70
2022-12-29T14:16:29.851Z,10.60
2022-12-29T14:19:36.408Z,10.60
2022-12-29T14:22:59.179Z,10.60
2022-12-29T14:26:14.487Z,10.70
2022-12-29T14:29:39.814Z,10.60
2022-12-29T14:33:04.511Z,10.70
2022-12-29T14:36:36.453Z,10.70
2022-12-29T14:39:41.984Z,10.70
2022-12-29T14:42:55.298Z,10.70
2022-12-29T14:46:03.496Z,10.70
2022-12-29T14:49:07.203Z,10.70
2022-12-29T14:52:20.454Z,10.70
2022-12-29T14:55:40.794Z,10.70
2022-12-29T14:58:54.092Z,10.70
2022-12-29T15:01:58.820Z,10.70
2022-12-29T15:05:04.565Z,10.70
2022-12-29T15:08:09.603Z,10.70
2022-12-29T15:11:17.671Z,10.70
2022-12-29T15:14:51.252Z,10.70
2022-12-29T15:17:55.623Z,10.70
2022-12-29T15:21:02.025Z,10.70
2022-12-29T15:24:06.789Z,10.70
2022-12-29T15:27:17.277Z,10.60
2022-12-29T15:30:23.109Z,10.60
2022-12-29T15:33:29.871Z,10.60
2022-12-29T15:36:40.856Z,10.60
2022-12-29T15:39:44.595Z,10.60
2022-12-29T15:42:59.122Z,10.60
2022-12-29T15:46:05.596Z,10.60
2022-12-29T15:49:10.826Z,10.60
2022-12-29T15:52:20.541Z,10.50
2022-12-29T15:55:30.722Z,10.50
2022-12-29T15:58:44.853Z,10.50
2022-12-29T16:01:50.858Z,10.50
2022-12-29T16:05:17.330Z,10.50
2022-12-29T16:08:29.825Z,10.50
2022-12-29T16:11:37.382Z,10.50
2022-12-29T16:14:45.413Z,10.40
2022-12-29T16:17:53.734Z,10.40
2022-12-29T16:20:58.990Z,10.40
2022-12-29T16:24:05.317Z,10.40
2022-12-29T16:27:11.552Z,10.30
2022-12-29T16:30:29.363Z,10.30
2022-12-29T16:33:48.168Z,10.30
2022-12-29T16:36:57.198Z,10.20
2022-12-29T16:40:28.626Z,10.20
2022-12-29T16:43:35.047Z,10.20
2022-12-29T16:46:43.669Z,10.20
2022-12-29T16:49:53.433Z,10.20
2022-12-29T16:52:57.174Z,10.10
2022-12-29T16:56:07.770Z,10.20
2022-12-29T16:59:34.581Z,10.10
2022-12-29T17:02:44.770Z,10.10
2022-12-29T17:05:57.107Z,10.10
2022-12-29T17:09:01.656Z,10.10
2022-12-29T17:12:11.350Z,10.10
2022-12-29T17:15:24.217Z,10.00
2022-12-29T17:18:27.995Z,10.00
2022-12-29T17:21:34.463Z,10.00
2022-12-29T17:24:38.917Z,10.10
2022-12-29T17:27:45.638Z,10.10
2022-12-29T17:30:49.701Z,10.00
2022-12-29T17:33:56.147Z,10.00
2022-12-29T17:37:01.808Z,10.00
2022-12-29T17:40:08.045Z,10.00
2022-12-29T17:43:14.832Z,10.00
2022-12-29T17:46:19.085Z,10.00
2022-12-29T17:49:22.881Z,10.00
2022-12-29T17:52:28.870Z,10.00
2022-12-29T17:55:37.672Z,10.00
2022-12-29T17:58:43.055Z,10.00
2022-12-29T18:01:48.928Z,10.00
2022-12-29T18:04:52.930Z,10.00
2022-12-29T18:07:59.281Z,10.00
2022-12-29T18:11:03.548Z,10.00
2022-12-29T18:14:07.383Z,10.00
2022-12-29T18:17:13.469Z,10.00
2022-12-29T18:20:17.852Z,10.00
2022-12-29T18:23:26.129Z,9.90
2022-12-29T18:26:32.383Z,10.00
2022-12-29T18:29:36.130Z,10.00
2022-12-29T18:32:39.879Z,9.90
2022-12-29T18:35:47.970Z,9.90
2022-12-29T18:38:54.922Z,9.90
2022-12-29T18:43:24.437Z,9.90
2022-12-29T18:46:29.442Z,9.90
2022-12-29T18:49:33.249Z,9.90
2022-12-29T18:52:37.033Z,9.90
2022-12-29T18:55:40.704Z,9.90
2022-12-29T18:58:46.379Z,9.90
2022-12-29T19:01:50.406Z,9.90
2022-12-29T19:05:03.409Z,9.80
2022-12-29T19:08:11.746Z,9.80
2022-12-29T19:11:15.590Z,9.80
2022-12-29T19:14:21.054Z,9.80
2022-12-29T19:17:24.814Z,9.80
2022-12-29T19:21:19.412Z,9.80
2022-12-29T19:24:23.190Z,9.70
2022-12-29T19:27:27.023Z,9.70
2022-12-29T19:30:32.622Z,9.70
2022-12-29T19:33:36.452Z,9.70
2022-12-29T19:36:42.483Z,9.70
2022-12-29T19:39:47.042Z,9.70
2022-12-29T19:42:51.651Z,9.70
2022-12-29T19:45:55.390Z,9.60
2022-12-29T19:48:59.838Z,9.60
2022-12-29T19:52:05.947Z,9.60
2022-12-29T19:55:10.939Z,9.60
2022-12-29T19:58:15.244Z,9.60
2022-12-29T20:01:20.780Z,9.60
2022-12-29T20:04:25.149Z,9.50
2022-12-29T20:07:31.219Z,9.50
2022-12-29T20:10:35.304Z,9.50
2022-12-29T20:13:39.449Z,9.40
2022-12-29T20:17:09.029Z,9.40
2022-12-29T20:20:09.175Z,9.40
2022-12-29T20:23:14.960Z,9.40
2022-12-29T20:26:20.877Z,9.40
2022-12-29T20:29:27.562Z,9.30
2022-12-29T20:32:31.403Z,9.40
2022-12-29T20:35:35.190Z,9.30
2022-12-29T20:38:40.889Z,9.30
2022-12-29T20:41:45.713Z,9.30
2022-12-29T20:44:50.253Z,9.30
2022-12-29T20:47:54.157Z,9.30
2022-12-29T20:50:59.794Z,9.30
2022-12-29T20:54:05.936Z,9.30
2022-12-29T20:57:09.791Z,9.20
2022-12-29T21:00:20.593Z,9.20
2022-12-29T21:03:26.157Z,9.20
2022-12-29T21:06:29.638Z,9.20
2022-12-29T21:09:35.623Z,9.20
2022-12-29T21:12:39.710Z,9.20
2022-12-29T21:15:43.690Z,9.10
2022-12-29T21:18:47.511Z,9.10
2022-12-29T21:21:51.274Z,9.10
2022-12-29T21:24:56.951Z,9.10
2022-12-29T21:28:00.974Z,9.10
2022-12-29T21:31:10.026Z,9.00
2022-12-29T21:34:13.905Z,9.00
2022-12-29T21:37:23.449Z,9.00
2022-12-29T21:40:29.577Z,8.90
2022-12-29T21:43:33.316Z,8.90
2022-12-29T21:46:39.458Z,8.90
2022-12-29T21:49:43.246Z,8.90
2022-12-29T21:52:46.991Z,8.90
2022-12-29T21:55:55.694Z,8.90
2022-12-29T21:59:24.106Z,8.90
2022-12-29T22:02:42.323Z,8.90
2022-12-29T22:05:59.434Z,8.90
2022-12-29T22:09:17.176Z,8.90
2022-12-29T22:12:36.394Z,8.90
2022-12-29T22:15:40.514Z,8.80
2022-12-29T22:18:44.622Z,8.90
2022-12-29T22:21:48.364Z,8.80
2022-12-29T22:24:52.407Z,8.80
2022-12-29T22:27:59.327Z,8.80
2022-12-29T22:31:03.782Z,8.80
2022-12-29T22:34:07.582Z,8.80
2022-12-29T22:37:11.634Z,8.80
2022-12-29T22:40:15.443Z,8.80
2022-12-29T22:43:21.433Z,8.80
2022-12-29T22:46:25.274Z,8.80
2022-12-29T22:49:29.128Z,8.80
2022-12-29T22:52:32.855Z,8.80
2022-12-29T22:55:36.852Z,8.80
2022-12-29T22:58:44.251Z,8.80
2022-12-29T23:01:48.469Z,8.80
2022-12-29T23:05:03.610Z,8.80
2022-12-29T23:08:08.363Z,8.70
2022-12-29T23:11:14.189Z,8.70
2022-12-29T23:14:20.395Z,8.70
2022-12-29T23:17:24.548Z,8.70
2022-12-29T23:20:28.678Z,8.70
2022-12-29T23:23:49.280Z,8.70
2022-12-29T23:26:53.550Z,8.70
2022-12-29T23:29:59.035Z,8.70
2022-12-29T23:33:02.883Z,8.60
2022-12-29T23:36:08.000Z,8.60
2022-12-29T23:39:17.567Z,8.60
2022-12-29T23:42:21.333Z,8.60
2022-12-29T23:45:27.292Z,8.60
2022-12-29T23:48:31.027Z,8.60
2022-12-29T23:51:34.829Z,8.60
2022-12-29T23:54:39.195Z,8.60
2022-12-29T23:57:43.239Z,8.50
